createdAt,value
2023-05-07T00:00:52.233Z,18.88
2023-05-07T00:03:20.024Z,19.35
2023-05-07T00:05:47.374Z,20.48
2023-05-07T00:08:13.738Z,20.85
2023-05-07T00:10:40.359Z,21.63
2023-05-07T00:13:06.813Z,22.08
2023-05-07T00:15:33.209Z,22.10
2023-05-07T00:18:00.417Z,21.38
2023-05-07T00:20:27.034Z,20.92
2023-05-07T00:22:53.432Z,20.85
2023-05-07T00:25:20.683Z,18.98
2023-05-07T00:27:47.036Z,19.60
2023-05-07T00:30:13.841Z,20.45
2023-05-07T00:32:40.353Z,19.92
2023-05-07T00:35:07.498Z,20.55
2023-05-07T00:37:33.902Z,20.33
2023-05-07T00:40:00.367Z,20.52
2023-05-07T00:42:26.817Z,21.73
2023-05-07T00:44:53.201Z,23.45
2023-05-07T00:47:19.614Z,23.23
2023-05-07T00:49:46.657Z,21.65
2023-05-07T00:52:15.865Z,20.77
2023-05-07T00:54:43.107Z,22.40
2023-05-07T00:57:10.828Z,20.88
2023-05-07T00:59:37.237Z,21.92
2023-05-07T01:02:03.642Z,22.75
2023-05-07T01:04:30.171Z,22.52
2023-05-07T01:06:58.058Z,21.17
2023-05-07T01:09:29.042Z,23.58
2023-05-07T01:11:56.264Z,22.60
2023-05-07T01:14:22.740Z,21.95
2023-05-07T01:16:49.467Z,22.20
2023-05-07T01:19:18.931Z,21.25
2023-05-07T01:21:48.314Z,23.17
2023-05-07T01:24:15.415Z,19.75
2023-05-07T01:26:44.625Z,21.08
2023-05-07T01:29:11.234Z,20.75
2023-05-07T01:31:38.305Z,20.38
2023-05-07T01:34:06.078Z,20.60
2023-05-07T01:36:32.903Z,19.30
2023-05-07T01:39:00.036Z,19.13
2023-05-07T01:41:26.710Z,19.25
2023-05-07T01:43:53.313Z,18.98
2023-05-07T01:46:19.923Z,19.63
2023-05-07T01:48:46.957Z,19.25
2023-05-07T01:51:13.769Z,19.65
2023-05-07T01:53:41.504Z,20.55
2023-05-07T01:56:08.179Z,18.85
2023-05-07T01:58:34.607Z,17.98
2023-05-07T02:01:01.241Z,19.05
2023-05-07T02:03:27.752Z,20.33
2023-05-07T02:05:54.257Z,19.58
2023-05-07T02:08:20.638Z,21.02
2023-05-07T02:10:47.021Z,21.40
2023-05-07T02:13:13.470Z,21.73
2023-05-07T02:15:39.868Z,22.30
2023-05-07T02:18:08.648Z,21.38
2023-05-07T02:20:35.047Z,22.05
2023-05-07T02:23:01.531Z,21.60
2023-05-07T02:25:27.906Z,21.67
2023-05-07T02:27:54.284Z,21.75
2023-05-07T02:30:22.201Z,21.80
2023-05-07T02:32:48.716Z,22.42
2023-05-07T02:35:15.128Z,22.50
2023-05-07T02:37:41.501Z,22.00
2023-05-07T02:40:08.553Z,22.25
2023-05-07T02:42:35.014Z,21.02
2023-05-07T02:45:01.396Z,21.90
2023-05-07T02:47:28.926Z,21.30
2023-05-07T02:49:55.979Z,20.92
2023-05-07T02:52:22.904Z,20.83
2023-05-07T02:54:49.525Z,21.40
2023-05-07T02:57:16.037Z,22.23
2023-05-07T02:59:43.204Z,24.27
2023-05-07T03:02:10.046Z,23.80
2023-05-07T03:04:36.618Z,24.30
2023-05-07T03:07:03.104Z,24.08
2023-05-07T03:09:29.486Z,25.05
2023-05-07T03:11:56.303Z,23.95
2023-05-07T03:14:22.777Z,23.85
2023-05-07T03:16:50.125Z,24.08
2023-05-07T03:19:16.576Z,23.73
2023-05-07T03:21:42.969Z,24.00
2023-05-07T03:24:09.377Z,24.73
2023-05-07T03:26:35.979Z,25.30
2023-05-07T03:29:02.712Z,25.10
2023-05-07T03:31:29.138Z,24.50
2023-05-07T03:33:57.486Z,26.40
2023-05-07T03:36:24.294Z,25.48
2023-05-07T03:38:50.939Z,25.48
2023-05-07T03:41:17.374Z,27.20
2023-05-07T03:43:43.774Z,26.45
2023-05-07T03:46:10.186Z,27.30
2023-05-07T03:48:36.557Z,27.55
2023-05-07T03:51:02.966Z,25.08
2023-05-07T03:53:29.347Z,23.02
2023-05-07T03:55:55.896Z,25.00
2023-05-07T03:58:22.275Z,24.35
2023-05-07T04:00:50.120Z,26.40
2023-05-07T04:03:16.665Z,26.35
2023-05-07T04:05:43.239Z,25.27
2023-05-07T04:08:09.615Z,25.48
2023-05-07T04:10:36.000Z,27.27
2023-05-07T04:13:02.620Z,24.73
2023-05-07T04:15:29.072Z,25.73
2023-05-07T04:17:55.537Z,26.00
2023-05-07T04:20:21.939Z,25.88
2023-05-07T04:22:48.319Z,21.48
2023-05-07T04:25:14.793Z,25.30
2023-05-07T04:27:41.160Z,23.98
2023-05-07T04:30:08.154Z,21.13
2023-05-07T04:32:34.568Z,20.33
2023-05-07T04:35:00.975Z,21.67
2023-05-07T04:37:27.542Z,20.70
2023-05-07T04:39:53.938Z,19.85
2023-05-07T04:42:20.328Z,18.33
2023-05-07T04:44:46.710Z,19.02
2023-05-07T04:47:13.259Z,19.27
2023-05-07T04:49:39.848Z,19.27
2023-05-07T04:52:06.243Z,18.13
2023-05-07T04:54:32.644Z,16.98
2023-05-07T04:56:59.083Z,17.58
2023-05-07T04:59:25.448Z,17.13
2023-05-07T05:01:51.929Z,16.48
2023-05-07T05:04:18.335Z,16.90
2023-05-07T05:06:44.712Z,16.05
2023-05-07T05:09:12.086Z,15.35
2023-05-07T05:11:38.478Z,16.48
2023-05-07T05:14:04.844Z,15.75
2023-05-07T05:16:31.287Z,16.15
2023-05-07T05:18:57.735Z,15.60
2023-05-07T05:21:24.137Z,16.55
2023-05-07T05:23:50.711Z,16.23
2023-05-07T05:26:17.154Z,15.07
2023-05-07T05:28:43.541Z,15.32
2023-05-07T05:31:09.960Z,15.93
2023-05-07T05:33:36.469Z,15.38
2023-05-07T05:36:02.872Z,15.57
2023-05-07T05:38:29.268Z,16.20
2023-05-07T05:40:56.626Z,17.13
2023-05-07T05:43:23.248Z,16.33
2023-05-07T05:45:49.648Z,15.95
2023-05-07T05:48:16.083Z,16.10
2023-05-07T05:50:43.277Z,16.15
2023-05-07T05:53:09.754Z,16.25
2023-05-07T05:55:36.170Z,16.10
2023-05-07T05:58:02.611Z,17.05
2023-05-07T06:00:30.029Z,16.30
2023-05-07T06:02:56.838Z,17.02
2023-05-07T06:05:23.359Z,16.77
2023-05-07T06:07:49.835Z,16.95
2023-05-07T06:10:16.358Z,17.77
2023-05-07T06:12:42.858Z,18.52
2023-05-07T06:15:09.738Z,17.85
2023-05-07T06:17:36.146Z,18.83
2023-05-07T06:20:02.565Z,19.45
2023-05-07T06:22:28.943Z,19.48
2023-05-07T06:24:55.499Z,20.25
2023-05-07T06:27:21.900Z,20.27
2023-05-07T06:29:49.382Z,19.48
2023-05-07T06:32:15.904Z,20.33
2023-05-07T06:34:42.342Z,19.77
2023-05-07T06:37:08.823Z,19.15
2023-05-07T06:39:35.262Z,20.13
2023-05-07T06:42:02.816Z,19.95
2023-05-07T06:44:29.202Z,19.48
2023-05-07T06:46:55.569Z,20.05
2023-05-07T06:49:21.966Z,21.15
2023-05-07T06:51:48.340Z,19.45
2023-05-07T06:54:14.718Z,20.88
2023-05-07T06:56:41.154Z,21.90
2023-05-07T06:59:07.589Z,20.50
2023-05-07T07:01:34.196Z,20.15
2023-05-07T07:04:01.449Z,21.88
2023-05-07T07:06:27.952Z,21.13
2023-05-07T07:08:54.442Z,20.45
2023-05-07T07:11:21.711Z,23.05
2023-05-07T07:13:48.111Z,23.52
2023-05-07T07:16:14.595Z,23.25
2023-05-07T07:18:41.088Z,23.00
2023-05-07T07:21:07.490Z,24.83
2023-05-07T07:23:33.894Z,23.98
2023-05-07T07:26:00.286Z,24.52
2023-05-07T07:28:26.745Z,22.73
2023-05-07T07:30:53.160Z,25.85
2023-05-07T07:33:19.588Z,24.90
2023-05-07T07:35:46.031Z,24.08
2023-05-07T07:38:12.430Z,24.60
2023-05-07T07:40:40.321Z,24.80
2023-05-07T07:43:07.067Z,24.02
2023-05-07T07:45:33.467Z,23.58
2023-05-07T07:47:59.974Z,24.85
2023-05-07T07:52:58.436Z,24.10
2023-05-07T07:55:24.868Z,22.73
2023-05-07T07:57:51.348Z,24.35
2023-05-07T08:00:18.185Z,24.77
2023-05-07T08:02:44.720Z,24.70
2023-05-07T08:05:11.273Z,22.70
2023-05-07T08:07:37.652Z,22.85
2023-05-07T08:10:04.492Z,23.13
2023-05-07T08:12:30.911Z,24.17
2023-05-07T08:14:57.302Z,22.38
2023-05-07T08:17:23.796Z,21.67
2023-05-07T08:19:50.485Z,23.13
2023-05-07T08:22:18.676Z,23.52
2023-05-07T08:24:45.800Z,25.30
2023-05-07T08:27:12.294Z,23.48
2023-05-07T08:29:38.683Z,22.27
2023-05-07T08:32:05.139Z,21.83
2023-05-07T08:34:31.515Z,22.75
2023-05-07T08:36:57.930Z,21.75
2023-05-07T08:39:24.306Z,19.25
2023-05-07T08:41:53.359Z,20.15
2023-05-07T08:44:22.596Z,21.67
2023-05-07T08:46:50.711Z,20.77
2023-05-07T08:49:18.044Z,19.92
2023-05-07T08:51:44.570Z,21.83
2023-05-07T08:54:11.770Z,22.52
2023-05-07T08:56:38.160Z,20.38
2023-05-07T08:59:04.647Z,21.98
2023-05-07T09:01:31.086Z,22.30
2023-05-07T09:03:58.424Z,21.13
2023-05-07T09:06:24.911Z,19.42
2023-05-07T09:08:52.667Z,18.40
2023-05-07T09:11:25.757Z,19.55
2023-05-07T09:13:57.000Z,18.92
2023-05-07T09:16:24.364Z,18.53
2023-05-07T09:18:54.678Z,18.08
2023-05-07T09:21:22.183Z,18.80
2023-05-07T09:23:52.854Z,20.25
2023-05-07T09:26:20.051Z,19.83
2023-05-07T09:28:47.646Z,21.50
2023-05-07T09:31:14.161Z,20.98
2023-05-07T09:33:41.096Z,20.10
2023-05-07T09:36:09.548Z,21.83
2023-05-07T09:38:36.866Z,19.15
2023-05-07T09:41:11.135Z,16.67
2023-05-07T09:43:39.136Z,18.73
2023-05-07T09:46:16.138Z,18.98
2023-05-07T09:48:44.254Z,20.70
2023-05-07T09:51:46.829Z,19.23
2023-05-07T09:56:42.504Z,18.63
2023-05-07T09:59:09.300Z,18.65
2023-05-07T10:01:37.803Z,18.20
2023-05-07T10:04:09.212Z,17.42
2023-05-07T10:06:36.566Z,19.00
2023-05-07T10:09:06.671Z,16.45
2023-05-07T10:11:34.935Z,17.73
2023-05-07T10:14:04.820Z,17.13
2023-05-07T10:16:33.602Z,17.50
2023-05-07T10:19:00.609Z,17.77
2023-05-07T10:21:29.013Z,16.55
2023-05-07T10:24:02.527Z,16.23
2023-05-07T10:26:29.772Z,15.75
2023-05-07T10:29:01.948Z,17.10
2023-05-07T10:31:54.917Z,16.55
2023-05-07T10:34:28.772Z,15.25
2023-05-07T10:36:55.669Z,13.15
2023-05-07T10:39:22.927Z,14.38
2023-05-07T10:41:49.547Z,15.50
2023-05-07T10:44:29.362Z,17.05
2023-05-07T10:47:12.529Z,16.40
2023-05-07T10:49:44.975Z,16.75
2023-05-07T10:52:18.998Z,17.50
2023-05-07T10:54:45.892Z,16.20
2023-05-07T10:57:36.619Z,14.20
2023-05-07T11:00:04.647Z,13.27
2023-05-07T11:03:02.086Z,12.70
2023-05-07T11:05:30.750Z,14.35
2023-05-07T11:07:57.878Z,14.73
2023-05-07T11:10:24.570Z,13.38
2023-05-07T11:12:52.509Z,12.95
2023-05-07T11:15:36.271Z,12.50
2023-05-07T11:18:04.708Z,12.75
2023-05-07T11:20:54.233Z,12.70
2023-05-07T11:23:48.288Z,12.98
2023-05-07T11:26:15.232Z,13.25
2023-05-07T11:28:42.806Z,11.82
2023-05-07T11:31:10.312Z,13.18
2023-05-07T11:33:38.267Z,13.35
2023-05-07T11:36:05.884Z,13.07
2023-05-07T11:38:35.948Z,12.38
2023-05-07T11:41:03.493Z,13.07
2023-05-07T11:43:29.933Z,11.55
2023-05-07T11:46:06.307Z,10.73
2023-05-07T11:48:32.923Z,10.90
2023-05-07T11:50:59.185Z,10.00
2023-05-07T11:53:26.594Z,9.23
2023-05-07T11:55:53.803Z,7.97
2023-05-07T11:58:24.869Z,6.78
2023-05-07T12:00:52.101Z,6.88
2023-05-07T12:03:21.478Z,7.70
2023-05-07T12:05:48.728Z,9.88
2023-05-07T12:08:19.855Z,8.00
2023-05-07T12:10:48.735Z,7.63
2023-05-07T12:13:27.443Z,7.13
2023-05-07T12:15:54.809Z,6.00
2023-05-07T12:18:21.655Z,6.38
2023-05-07T12:20:48.404Z,7.10
2023-05-07T12:23:15.106Z,7.40
2023-05-07T12:25:47.519Z,6.03
2023-05-07T12:28:16.286Z,7.68
2023-05-07T12:30:47.496Z,9.23
2023-05-07T12:33:18.169Z,9.75
2023-05-07T12:35:44.873Z,8.82
2023-05-07T12:38:13.039Z,8.77
2023-05-07T12:40:41.245Z,9.77
2023-05-07T12:43:07.855Z,10.02
2023-05-07T12:45:41.859Z,8.40
2023-05-07T12:48:11.085Z,8.57
2023-05-07T12:50:37.532Z,9.68
2023-05-07T12:53:06.952Z,9.50
2023-05-07T12:55:35.066Z,9.65
2023-05-07T12:58:02.640Z,8.77
2023-05-07T13:00:39.031Z,9.23
2023-05-07T13:03:05.772Z,7.65
2023-05-07T13:05:33.211Z,6.90
2023-05-07T13:07:59.738Z,8.02
2023-05-07T13:10:26.812Z,8.82
2023-05-07T13:12:53.576Z,7.65
2023-05-07T13:15:20.333Z,9.40
2023-05-07T13:17:46.826Z,8.25
2023-05-07T13:20:16.487Z,8.57
2023-05-07T13:22:42.895Z,8.50
2023-05-07T13:25:09.850Z,7.65
2023-05-07T13:27:37.774Z,8.98
2023-05-07T13:30:05.598Z,7.75
2023-05-07T13:32:32.502Z,7.18
2023-05-07T13:34:59.089Z,6.70
2023-05-07T13:37:25.669Z,7.82
2023-05-07T13:39:52.074Z,7.47
2023-05-07T13:42:18.587Z,5.88
2023-05-07T13:44:44.948Z,6.70
2023-05-07T13:47:11.508Z,6.03
2023-05-07T13:49:37.892Z,7.63
2023-05-07T13:52:04.507Z,7.47
2023-05-07T13:54:30.923Z,7.70
2023-05-07T13:56:57.331Z,8.85
2023-05-07T13:59:23.696Z,9.48
2023-05-07T14:01:50.554Z,10.48
2023-05-07T14:04:16.931Z,10.68
2023-05-07T14:06:43.333Z,11.05
2023-05-07T14:09:12.998Z,10.60
2023-05-07T14:11:39.382Z,11.35
2023-05-07T14:14:05.931Z,11.13
2023-05-07T14:16:32.381Z,12.23
2023-05-07T14:18:58.998Z,11.07
2023-05-07T14:21:25.597Z,11.90
2023-05-07T14:23:52.031Z,12.82
2023-05-07T14:26:18.415Z,11.85
2023-05-07T14:28:47.149Z,11.93
2023-05-07T14:31:13.975Z,11.10
2023-05-07T14:33:42.000Z,11.15
2023-05-07T14:36:08.785Z,11.23
2023-05-07T14:38:35.190Z,11.32
2023-05-07T14:41:01.698Z,10.25
2023-05-07T14:43:28.161Z,9.00
2023-05-07T14:45:54.644Z,8.95
2023-05-07T14:48:21.457Z,8.35
2023-05-07T14:50:49.083Z,8.82
2023-05-07T14:53:16.537Z,7.93
2023-05-07T14:55:42.935Z,8.45
2023-05-07T14:58:09.404Z,8.40
2023-05-07T15:00:35.871Z,9.85
2023-05-07T15:03:10.014Z,8.65
2023-05-07T15:05:37.044Z,9.70
2023-05-07T15:08:03.893Z,9.73
2023-05-07T15:10:30.275Z,10.23
2023-05-07T15:12:56.731Z,9.32
2023-05-07T15:15:23.149Z,9.00
2023-05-07T15:17:49.540Z,9.30
2023-05-07T15:20:16.173Z,10.23
2023-05-07T15:22:42.694Z,9.93
2023-05-07T15:25:10.491Z,9.95
2023-05-07T15:27:37.294Z,8.70
2023-05-07T15:30:04.292Z,7.10
2023-05-07T15:32:30.757Z,6.05
2023-05-07T15:34:57.194Z,6.25
2023-05-07T15:37:23.592Z,7.10
2023-05-07T15:39:49.963Z,7.18
2023-05-07T15:42:16.393Z,6.95
2023-05-07T15:44:42.991Z,5.82
2023-05-07T15:47:09.408Z,6.15
2023-05-07T15:49:35.833Z,7.22
2023-05-07T15:52:02.296Z,6.75
2023-05-07T15:54:28.701Z,6.28
2023-05-07T15:56:55.075Z,6.47
2023-05-07T15:59:21.659Z,6.75
2023-05-07T16:01:48.100Z,6.97
2023-05-07T16:04:14.539Z,5.80
2023-05-07T16:06:41.096Z,6.80
2023-05-07T16:09:10.090Z,6.50
2023-05-07T16:11:36.525Z,5.80
2023-05-07T16:14:02.959Z,6.68
2023-05-07T16:16:33.350Z,5.88
2023-05-07T16:18:59.800Z,5.88
2023-05-07T16:21:26.559Z,5.45
2023-05-07T16:23:53.183Z,5.25
2023-05-07T16:26:19.655Z,5.93
2023-05-07T16:28:46.109Z,5.03
2023-05-07T16:31:12.583Z,5.47
2023-05-07T16:33:38.990Z,5.65
2023-05-07T16:36:06.734Z,6.40
2023-05-07T16:38:34.087Z,4.70
2023-05-07T16:41:01.284Z,5.72
2023-05-07T16:43:27.691Z,5.43
2023-05-07T16:45:54.157Z,4.80
2023-05-07T16:48:21.243Z,4.63
2023-05-07T16:50:47.737Z,4.60
2023-05-07T16:53:14.136Z,4.80
2023-05-07T16:55:41.519Z,4.65
2023-05-07T16:58:10.961Z,4.22
2023-05-07T17:00:49.905Z,4.45
2023-05-07T17:03:17.866Z,4.90
2023-05-07T17:05:44.452Z,4.82
2023-05-07T17:08:10.850Z,4.80
2023-05-07T17:10:37.261Z,4.65
2023-05-07T17:13:03.717Z,4.47
2023-05-07T17:15:30.284Z,4.65
2023-05-07T17:17:56.736Z,5.53
2023-05-07T17:20:23.174Z,5.85
2023-05-07T17:22:49.563Z,5.55
2023-05-07T17:25:16.143Z,4.90
2023-05-07T17:27:42.506Z,4.22
2023-05-07T17:30:09.544Z,4.70
2023-05-07T17:32:36.055Z,5.07
2023-05-07T17:35:03.165Z,4.68
2023-05-07T17:37:29.569Z,4.15
2023-05-07T17:39:56.156Z,3.70
2023-05-07T17:42:22.534Z,3.80
2023-05-07T17:44:48.954Z,4.03
2023-05-07T17:47:15.543Z,3.35
2023-05-07T17:49:42.233Z,3.47
2023-05-07T17:52:08.909Z,3.33
2023-05-07T17:54:35.401Z,3.60
2023-05-07T17:57:01.846Z,3.53
2023-05-07T17:59:28.678Z,4.22
2023-05-07T18:01:55.219Z,5.80
2023-05-07T18:04:21.880Z,4.70
2023-05-07T18:06:48.417Z,5.18
2023-05-07T18:09:15.184Z,4.93
2023-05-07T18:11:41.559Z,4.70
2023-05-07T18:14:07.928Z,4.85
2023-05-07T18:16:34.575Z,4.50
2023-05-07T18:19:01.145Z,4.65
2023-05-07T18:21:28.038Z,4.38
2023-05-07T18:23:54.524Z,4.50
2023-05-07T18:26:21.352Z,4.15
2023-05-07T18:28:47.796Z,4.10
2023-05-07T18:31:14.305Z,4.47
2023-05-07T18:33:40.784Z,6.35
2023-05-07T18:36:07.200Z,6.03
2023-05-07T18:38:33.989Z,7.50
2023-05-07T18:41:04.347Z,9.00
2023-05-07T18:43:30.769Z,9.85
2023-05-07T18:45:57.289Z,10.18
2023-05-07T18:48:23.745Z,12.65
2023-05-07T18:50:50.499Z,12.98
2023-05-07T18:53:16.859Z,13.25
2023-05-07T18:55:46.058Z,12.65
2023-05-07T18:58:12.619Z,14.23
2023-05-07T19:00:39.012Z,14.52
2023-05-07T19:03:05.542Z,14.23
2023-05-07T19:05:32.043Z,15.02
2023-05-07T19:07:58.427Z,15.43
2023-05-07T19:10:24.879Z,16.23
2023-05-07T19:12:55.218Z,16.75
2023-05-07T19:15:23.239Z,15.25
2023-05-07T19:17:50.604Z,16.10
2023-05-07T19:20:17.085Z,16.40
2023-05-07T19:22:43.487Z,16.08
2023-05-07T19:25:10.378Z,17.23
2023-05-07T19:27:36.964Z,17.30
2023-05-07T19:30:03.569Z,16.63
2023-05-07T19:32:29.983Z,17.98
2023-05-07T19:34:56.420Z,16.35
2023-05-07T19:37:25.356Z,16.52
2023-05-07T19:39:52.687Z,18.20
2023-05-07T19:42:19.204Z,17.67
2023-05-07T19:44:45.639Z,17.98
2023-05-07T19:47:12.083Z,18.20
2023-05-07T19:49:38.722Z,18.15
2023-05-07T19:52:05.277Z,18.42
2023-05-07T19:54:31.682Z,17.38
2023-05-07T19:56:58.070Z,18.63
2023-05-07T19:59:24.495Z,18.85
2023-05-07T20:01:51.030Z,18.88
2023-05-07T20:04:17.402Z,16.65
2023-05-07T20:06:43.787Z,18.33
2023-05-07T20:09:12.598Z,17.33
2023-05-07T20:11:39.729Z,16.73
2023-05-07T20:14:06.163Z,17.83
2023-05-07T20:16:33.471Z,18.90
2023-05-07T20:18:59.977Z,18.42
2023-05-07T20:21:26.729Z,17.92
2023-05-07T20:23:54.150Z,18.88
2023-05-07T20:26:21.208Z,18.73
2023-05-07T20:28:47.616Z,19.60
2023-05-07T20:31:14.208Z,18.40
2023-05-07T20:33:41.078Z,19.73
2023-05-07T20:36:08.043Z,17.80
2023-05-07T20:38:34.532Z,18.63
2023-05-07T20:41:08.407Z,18.95
2023-05-07T20:43:35.891Z,22.63
2023-05-07T20:46:02.658Z,19.08
2023-05-07T20:48:30.735Z,19.35
2023-05-07T20:50:58.249Z,19.23
2023-05-07T20:53:24.665Z,20.27
2023-05-07T20:55:51.506Z,18.80
2023-05-07T20:58:18.213Z,20.92
2023-05-07T21:00:44.662Z,20.95
2023-05-07T21:03:11.222Z,20.63
2023-05-07T21:05:37.675Z,21.40
2023-05-07T21:08:04.886Z,21.50
2023-05-07T21:10:31.355Z,20.35
2023-05-07T21:12:57.770Z,21.00
2023-05-07T21:15:24.210Z,20.73
2023-05-07T21:17:50.627Z,21.63
2023-05-07T21:20:17.086Z,20.83
2023-05-07T21:22:43.446Z,20.45
2023-05-07T21:25:11.902Z,20.52
2023-05-07T21:27:39.610Z,21.15
2023-05-07T21:30:06.607Z,20.52
2023-05-07T21:32:33.005Z,21.10
2023-05-07T21:35:00.934Z,20.75
2023-05-07T21:37:27.338Z,20.20
2023-05-07T21:39:53.747Z,19.83
2023-05-07T21:42:22.434Z,19.58
2023-05-07T21:44:49.517Z,20.13
2023-05-07T21:47:15.982Z,20.92
2023-05-07T21:49:42.406Z,21.42
2023-05-07T21:52:14.656Z,19.83
2023-05-07T21:54:41.430Z,20.23
2023-05-07T21:57:08.196Z,19.63
2023-05-07T21:59:34.606Z,21.17
2023-05-07T22:02:01.240Z,20.27
2023-05-07T22:04:27.735Z,20.95
2023-05-07T22:06:54.118Z,20.67
2023-05-07T22:09:20.514Z,20.45
2023-05-07T22:11:46.960Z,21.98
2023-05-07T22:14:13.352Z,21.30
2023-05-07T22:16:40.065Z,20.95
2023-05-07T22:19:06.536Z,21.95
2023-05-07T22:21:32.910Z,21.92
2023-05-07T22:23:59.290Z,22.90
2023-05-07T22:26:25.701Z,23.40
2023-05-07T22:28:52.085Z,22.38
2023-05-07T22:31:18.510Z,22.52
2023-05-07T22:33:44.956Z,22.83
2023-05-07T22:36:12.576Z,21.48
2023-05-07T22:38:38.958Z,23.20
2023-05-07T22:41:05.475Z,22.95
2023-05-07T22:43:31.884Z,24.27
2023-05-07T22:46:00.943Z,24.02
2023-05-07T22:48:28.512Z,23.33
2023-05-07T22:50:54.968Z,22.27
2023-05-07T22:53:21.551Z,22.55
2023-05-07T22:55:47.951Z,22.15
2023-05-07T22:58:14.359Z,21.83
2023-05-07T23:00:41.027Z,21.17
2023-05-07T23:03:07.709Z,21.40
2023-05-07T23:05:34.743Z,22.13
2023-05-07T23:08:01.177Z,22.13
2023-05-07T23:10:27.601Z,20.77
2023-05-07T23:12:54.119Z,21.90
2023-05-07T23:15:20.661Z,19.77
2023-05-07T23:17:47.530Z,22.02
2023-05-07T23:20:14.617Z,21.08
2023-05-07T23:22:41.149Z,21.95
2023-05-07T23:25:11.271Z,21.50
2023-05-07T23:27:37.673Z,21.75
2023-05-07T23:30:04.425Z,20.75
2023-05-07T23:32:31.355Z,21.08
2023-05-07T23:34:57.906Z,20.30
2023-05-07T23:37:24.311Z,20.38
2023-05-07T23:39:54.479Z,20.10
2023-05-07T23:42:20.990Z,20.83
2023-05-07T23:44:47.809Z,19.95
2023-05-07T23:47:14.220Z,20.23
2023-05-07T23:49:40.639Z,19.40
2023-05-07T23:52:07.022Z,20.33
2023-05-07T23:54:33.482Z,20.48
2023-05-07T23:56:59.981Z,20.67
2023-05-07T23:59:26.503Z,19.38
